sensor_id;sensor_type;location;lat;lon;timestamp;temperature;humidity
70214;DHT22;60138;55.808;37.078;2024-01-15T00:00:41;-8.03;76.78
70214;DHT22;60138;55.808;37.078;2024-01-15T00:03:07;-7.99;76.82
70214;DHT22;60138;55.808;37.078;2024-01-15T00:05:33;-7.96;76.83
70214;DHT22;60138;55.808;37.078;2024-01-15T00:07:58;-7.94;76.82
70214;DHT22;60138;55.808;37.078;2024-01-15T00:10:24;-7.91;76.82
70214;DHT22;60138;55.808;37.078;2024-01-15T00:12:50;-7.90;76.85
70214;DHT22;60138;55.808;37.078;2024-01-15T00:15:16;-7.86;76.87
70214;DHT22;60138;55.808;37.078;2024-01-15T00:17:42;-7.85;76.91
70214;DHT22;60138;55.808;37.078;2024-01-15T00:20:08;-7.82;76.94
70214;DHT22;60138;55.808;37.078;2024-01-15T00:22:34;-7.79;76.90
70214;DHT22;60138;55.808;37.078;2024-01-15T00:24:59;-7.76;76.95
70214;DHT22;60138;55.808;37.078;2024-01-15T00:27:25;-7.74;77.01
70214;DHT22;60138;55.808;37.078;2024-01-15T00:29:51;-7.71;76.98
70214;DHT22;60138;55.808;37.078;2024-01-15T00:32:17;-7.66;77.00
70214;DHT22;60138;55.808;37.078;2024-01-15T00:34:43;-7.64;77.02
70214;DHT22;60138;55.808;37.078;2024-01-15T00:37:09;-7.63;76.99
70214;DHT22;60138;55.808;37.078;2024-01-15T00:39:34;-7.63;77.02
70214;DHT22;60138;55.808;37.078;2024-01-15T00:42:00;-7.64;77.06
70214;DHT22;60138;55.808;37.078;2024-01-15T00:44:26;-7.64;77.08
70214;DHT22;60138;55.808;37.078;2024-01-15T00:46:52;-7.66;77.09
70214;DHT22;60138;55.808;37.078;2024-01-15T00:49:18;-7.69;77.11
70214;DHT22;60138;55.808;37.078;2024-01-15T00:51:44;-7.72;77.16
70214;DHT22;60138;55.808;37.078;2024-01-15T00:54:10;-7.70;77.19
70214;DHT22;60138;55.808;37.078;2024-01-15T00:56:36;-7.67;77.23
70214;DHT22;60138;55.808;37.078;2024-01-15T00:59:02;-7.64;77.26
70214;DHT22;60138;55.808;37.078;2024-01-15T01:01:28;-7.61;77.29
70214;DHT22;60138;55.808;37.078;2024-01-15T01:03:54;-7.56;77.31
70214;DHT22;60138;55.808;37.078;2024-01-15T01:06:20;-7.52;77.32
70214;DHT22;60138;55.808;37.078;2024-01-15T01:08:45;-7.49;77.37
70214;DHT22;60138;55.808;37.078;2024-01-15T01:11:15;-7.46;77.35
70214;DHT22;60138;55.808;37.078;2024-01-15T01:13:42;-7.41;77.36
70214;DHT22;60138;55.808;37.078;2024-01-15T01:16:08;-7.40;77.40
70214;DHT22;60138;55.808;37.078;2024-01-15T01:18:34;-7.38;77.47
70214;DHT22;60138;55.808;37.078;2024-01-15T01:21:00;-7.35;77.51
70214;DHT22;60138;55.808;37.078;2024-01-15T01:23:26;-7.33;77.50
70214;DHT22;60138;55.808;37.078;2024-01-15T01:25:52;-7.27;77.52
70214;DHT22;60138;55.808;37.078;2024-01-15T01:28:18;-7.23;77.54
70214;DHT22;60138;55.808;37.078;2024-01-15T01:30:44;-7.19;77.59
70214;DHT22;60138;55.808;37.078;2024-01-15T01:33:10;-7.13;77.60
70214;DHT22;60138;55.808;37.078;2024-01-15T01:35:36;-7.08;77.66
70214;DHT22;60138;55.808;37.078;2024-01-15T01:38:02;-7.04;77.66
70214;DHT22;60138;55.808;37.078;2024-01-15T01:40:27;-7.01;77.69
70214;DHT22;60138;55.808;37.078;2024-01-15T01:42:53;-6.95;77.72
70214;DHT22;60138;55.808;37.078;2024-01-15T01:45:19;-6.92;77.75
70214;DHT22;60138;55.808;37.078;2024-01-15T01:47:45;-6.88;77.79
70214;DHT22;60138;55.808;37.078;2024-01-15T01:50:12;-6.83;77.80
70214;DHT22;60138;55.808;37.078;2024-01-15T01:52:39;-6.81;77.78
70214;DHT22;60138;55.808;37.078;2024-01-15T01:55:06;-6.77;77.80
70214;DHT22;60138;55.808;37.078;2024-01-15T01:57:35;-6.75;77.80
70214;DHT22;60138;55.808;37.078;2024-01-15T02:00:02;-6.71;77.82
70214;DHT22;60138;55.808;37.078;2024-01-15T02:02:38;-6.68;77.84
70214;DHT22;60138;55.808;37.078;2024-01-15T02:05:05;-6.64;77.89
70214;DHT22;60138;55.808;37.078;2024-01-15T02:07:34;-6.61;77.91
70214;DHT22;60138;55.808;37.078;2024-01-15T02:10:00;-6.58;77.94
70214;DHT22;60138;55.808;37.078;2024-01-15T02:12:26;-6.55;77.96
70214;DHT22;60138;55.808;37.078;2024-01-15T02:14:52;-6.51;77.95
70214;DHT22;60138;55.808;37.078;2024-01-15T02:17:18;-6.49;77.99
70214;DHT22;60138;55.808;37.078;2024-01-15T02:19:44;-6.47;78.04
70214;DHT22;60138;55.808;37.078;2024-01-15T02:22:09;-6.44;78.08
70214;DHT22;60138;55.808;37.078;2024-01-15T02:24:35;-6.39;78.12
70214;DHT22;60138;55.808;37.078;2024-01-15T02:27:01;-6.38;78.16
70214;DHT22;60138;55.808;37.078;2024-01-15T02:29:27;-6.35;78.19
70214;DHT22;60138;55.808;37.078;2024-01-15T02:31:53;-6.34;78.22
70214;DHT22;60138;55.808;37.078;2024-01-15T02:34:19;-6.32;78.21
70214;DHT22;60138;55.808;37.078;2024-01-15T02:36:45;-6.30;78.24
70214;DHT22;60138;55.808;37.078;2024-01-15T02:39:10;-6.29;78.24
70214;DHT22;60138;55.808;37.078;2024-01-15T02:41:36;-6.28;78.29
70214;DHT22;60138;55.808;37.078;2024-01-15T02:44:02;-6.24;78.31
70214;DHT22;60138;55.808;37.078;2024-01-15T02:46:28;-6.21;78.33
70214;DHT22;60138;55.808;37.078;2024-01-15T02:48:54;-6.18;78.33
70214;DHT22;60138;55.808;37.078;2024-01-15T02:51:19;-6.17;78.34
70214;DHT22;60138;55.808;37.078;2024-01-15T02:53:46;-6.14;78.38
70214;DHT22;60138;55.808;37.078;2024-01-15T02:56:11;-6.13;78.42
70214;DHT22;60138;55.808;37.078;2024-01-15T02:58:37;-6.11;78.45
70214;DHT22;60138;55.808;37.078;2024-01-15T03:01:03;-6.06;78.47
70214;DHT22;60138;55.808;37.078;2024-01-15T03:03:29;-6.05;78.50
70214;DHT22;60138;55.808;37.078;2024-01-15T03:05:55;-6.02;78.52
70214;DHT22;60138;55.808;37.078;2024-01-15T03:08:20;-5.99;78.54
70214;DHT22;60138;55.808;37.078;2024-01-15T03:10:46;-5.97;78.56
70214;DHT22;60138;55.808;37.078;2024-01-15T03:13:12;-5.93;78.58
70214;DHT22;60138;55.808;37.078;2024-01-15T03:15:38;-5.92;78.59
70214;DHT22;60138;55.808;37.078;2024-01-15T03:18:04;-5.90;78.62
70214;DHT22;60138;55.808;37.078;2024-01-15T03:20:30;-5.89;78.62
70214;DHT22;60138;55.808;37.078;2024-01-15T03:22:56;-5.88;78.63
70214;DHT22;60138;55.808;37.078;2024-01-15T03:25:22;-5.84;78.67
70214;DHT22;60138;55.808;37.078;2024-01-15T03:27:48;-5.84;78.72
70214;DHT22;60138;55.808;37.078;2024-01-15T03:30:14;-5.82;78.73
70214;DHT22;60138;55.808;37.078;2024-01-15T03:32:40;-5.79;78.74
70214;DHT22;60138;55.808;37.078;2024-01-15T03:35:06;-5.77;78.78
70214;DHT22;60138;55.808;37.078;2024-01-15T03:37:32;-5.75;78.82
70214;DHT22;60138;55.808;37.078;2024-01-15T03:39:58;-5.72;78.84
70214;DHT22;60138;55.808;37.078;2024-01-15T03:42:23;-5.69;78.86
70214;DHT22;60138;55.808;37.078;2024-01-15T03:44:49;-5.68;78.86
70214;DHT22;60138;55.808;37.078;2024-01-15T03:47:15;-5.65;78.88
70214;DHT22;60138;55.808;37.078;2024-01-15T03:49:41;-5.64;78.90
70214;DHT22;60138;55.808;37.078;2024-01-15T03:52:07;-5.62;78.92
70214;DHT22;60138;55.808;37.078;2024-01-15T03:54:32;-5.60;78.92
70214;DHT22;60138;55.808;37.078;2024-01-15T03:56:58;-5.59;78.95
70214;DHT22;60138;55.808;37.078;2024-01-15T03:59:24;-5.57;78.98
70214;DHT22;60138;55.808;37.078;2024-01-15T04:01:50;-5.55;79.04
70214;DHT22;60138;55.808;37.078;2024-01-15T04:04:17;-5.54;79.05
70214;DHT22;60138;55.808;37.078;2024-01-15T04:06:42;-5.52;79.04
70214;DHT22;60138;55.808;37.078;2024-01-15T04:09:08;-5.50;79.07
70214;DHT22;60138;55.808;37.078;2024-01-15T04:11:34;-5.48;79.10
70214;DHT22;60138;55.808;37.078;2024-01-15T04:14:00;-5.46;79.13
70214;DHT22;60138;55.808;37.078;2024-01-15T04:16:28;-5.44;79.14
70214;DHT22;60138;55.808;37.078;2024-01-15T04:18:54;-5.43;79.17
70214;DHT22;60138;55.808;37.078;2024-01-15T04:21:20;-5.41;79.17
70214;DHT22;60138;55.808;37.078;2024-01-15T04:23:45;-5.39;79.19
70214;DHT22;60138;55.808;37.078;2024-01-15T04:26:11;-5.38;79.21
70214;DHT22;60138;55.808;37.078;2024-01-15T04:28:37;-5.37;79.24
70214;DHT22;60138;55.808;37.078;2024-01-15T04:31:03;-5.35;79.27
70214;DHT22;60138;55.808;37.078;2024-01-15T04:33:29;-5.33;79.27
70214;DHT22;60138;55.808;37.078;2024-01-15T04:35:55;-5.31;79.30
70214;DHT22;60138;55.808;37.078;2024-01-15T04:38:20;-5.30;79.29
70214;DHT22;60138;55.808;37.078;2024-01-15T04:40:46;-5.29;79.34
70214;DHT22;60138;55.808;37.078;2024-01-15T04:43:12;-5.28;79.35
70214;DHT22;60138;55.808;37.078;2024-01-15T04:45:38;-5.28;79.38
70214;DHT22;60138;55.808;37.078;2024-01-15T04:48:04;-5.25;79.40
70214;DHT22;60138;55.808;37.078;2024-01-15T04:50:30;-5.23;79.40
70214;DHT22;60138;55.808;37.078;2024-01-15T04:52:56;-5.20;79.42
70214;DHT22;60138;55.808;37.078;2024-01-15T04:55:21;-5.19;79.46
70214;DHT22;60138;55.808;37.078;2024-01-15T04:57:47;-5.17;79.47
70214;DHT22;60138;55.808;37.078;2024-01-15T05:00:13;-5.14;79.47
70214;DHT22;60138;55.808;37.078;2024-01-15T05:02:39;-5.12;79.49
70214;DHT22;60138;55.808;37.078;2024-01-15T05:05:05;-5.12;79.52
70214;DHT22;60138;55.808;37.078;2024-01-15T05:07:31;-5.10;79.56
70214;DHT22;60138;55.808;37.078;2024-01-15T05:09:57;-5.08;79.56
70214;DHT22;60138;55.808;37.078;2024-01-15T05:12:22;-5.07;79.58
70214;DHT22;60138;55.808;37.078;2024-01-15T05:14:49;-5.05;79.61
70214;DHT22;60138;55.808;37.078;2024-01-15T05:17:14;-5.02;79.62
70214;DHT22;60138;55.808;37.078;2024-01-15T05:19:40;-5.00;79.62
70214;DHT22;60138;55.808;37.078;2024-01-15T05:22:06;-4.98;79.66
70214;DHT22;60138;55.808;37.078;2024-01-15T05:24:32;-4.97;79.68
70214;DHT22;60138;55.808;37.078;2024-01-15T05:26:58;-4.95;79.68
70214;DHT22;60138;55.808;37.078;2024-01-15T05:29:24;-4.93;79.69
70214;DHT22;60138;55.808;37.078;2024-01-15T05:31:49;-4.90;79.72
70214;DHT22;60138;55.808;37.078;2024-01-15T05:34:15;-4.89;79.77
70214;DHT22;60138;55.808;37.078;2024-01-15T05:36:41;-4.87;79.78
70214;DHT22;60138;55.808;37.078;2024-01-15T05:39:07;-4.85;79.82
70214;DHT22;60138;55.808;37.078;2024-01-15T05:41:33;-4.83;79.84
70214;DHT22;60138;55.808;37.078;2024-01-15T05:43:58;-4.80;79.87
70214;DHT22;60138;55.808;37.078;2024-01-15T05:46:24;-4.79;79.88
70214;DHT22;60138;55.808;37.078;2024-01-15T05:48:50;-4.75;79.91
70214;DHT22;60138;55.808;37.078;2024-01-15T05:51:16;-4.73;79.94
70214;DHT22;60138;55.808;37.078;2024-01-15T05:53:42;-4.69;79.95
70214;DHT22;60138;55.808;37.078;2024-01-15T05:56:07;-4.68;79.95
70214;DHT22;60138;55.808;37.078;2024-01-15T05:58:33;-4.66;79.91
70214;DHT22;60138;55.808;37.078;2024-01-15T06:00:59;-4.64;79.95
70214;DHT22;60138;55.808;37.078;2024-01-15T06:03:26;-4.63;79.96
70214;DHT22;60138;55.808;37.078;2024-01-15T06:05:52;-4.59;79.98
70214;DHT22;60138;55.808;37.078;2024-01-15T06:08:18;-4.57;80.02
70214;DHT22;60138;55.808;37.078;2024-01-15T06:10:44;-4.57;80.05
70214;DHT22;60138;55.808;37.078;2024-01-15T06:13:10;-4.52;80.08
70214;DHT22;60138;55.808;37.078;2024-01-15T06:15:35;-4.50;80.10
70214;DHT22;60138;55.808;37.078;2024-01-15T06:18:01;-4.48;80.13
70214;DHT22;60138;55.808;37.078;2024-01-15T06:20:27;-4.44;80.15
70214;DHT22;60138;55.808;37.078;2024-01-15T06:22:53;-4.41;80.17
70214;DHT22;60138;55.808;37.078;2024-01-15T06:25:19;-4.39;80.19
70214;DHT22;60138;55.808;37.078;2024-01-15T06:27:46;-4.38;80.22
70214;DHT22;60138;55.808;37.078;2024-01-15T06:30:12;-4.34;80.24
70214;DHT22;60138;55.808;37.078;2024-01-15T06:32:38;-4.29;80.24
70214;DHT22;60138;55.808;37.078;2024-01-15T06:35:04;-4.27;80.26
70214;DHT22;60138;55.808;37.078;2024-01-15T06:37:30;-4.25;80.29
70214;DHT22;60138;55.808;37.078;2024-01-15T06:39:56;-4.22;80.33
70214;DHT22;60138;55.808;37.078;2024-01-15T06:42:22;-4.20;80.33
70214;DHT22;60138;55.808;37.078;2024-01-15T06:44:48;-4.16;80.36
70214;DHT22;60138;55.808;37.078;2024-01-15T06:47:13;-4.13;80.40
70214;DHT22;60138;55.808;37.078;2024-01-15T06:49:39;-4.10;80.42
70214;DHT22;60138;55.808;37.078;2024-01-15T06:52:05;-4.06;80.43
70214;DHT22;60138;55.808;37.078;2024-01-15T06:54:31;-4.02;80.44
70214;DHT22;60138;55.808;37.078;2024-01-15T06:56:57;-3.98;80.47
70214;DHT22;60138;55.808;37.078;2024-01-15T06:59:23;-3.95;80.49
70214;DHT22;60138;55.808;37.078;2024-01-15T07:01:49;-3.90;80.51
70214;DHT22;60138;55.808;37.078;2024-01-15T07:04:14;-3.85;80.53
70214;DHT22;60138;55.808;37.078;2024-01-15T07:06:40;-3.81;80.55
70214;DHT22;60138;55.808;37.078;2024-01-15T07:09:06;-3.78;80.58
70214;DHT22;60138;55.808;37.078;2024-01-15T07:11:32;-3.74;80.57
70214;DHT22;60138;55.808;37.078;2024-01-15T07:13:57;-3.69;80.58
70214;DHT22;60138;55.808;37.078;2024-01-15T07:16:24;-3.66;80.62
70214;DHT22;60138;55.808;37.078;2024-01-15T07:18:49;-3.62;80.62
70214;DHT22;60138;55.808;37.078;2024-01-15T07:21:15;-3.60;80.65
70214;DHT22;60138;55.808;37.078;2024-01-15T07:23:41;-3.56;80.67
70214;DHT22;60138;55.808;37.078;2024-01-15T07:26:07;-3.53;80.70
70214;DHT22;60138;55.808;37.078;2024-01-15T07:28:33;-3.50;80.68
70214;DHT22;60138;55.808;37.078;2024-01-15T07:30:58;-3.45;80.72
70214;DHT22;60138;55.808;37.078;2024-01-15T07:33:24;-3.41;80.73
70214;DHT22;60138;55.808;37.078;2024-01-15T07:35:50;-3.39;80.72
70214;DHT22;60138;55.808;37.078;2024-01-15T07:38:16;-3.33;80.76
70214;DHT22;60138;55.808;37.078;2024-01-15T07:40:42;-3.28;80.80
70214;DHT22;60138;55.808;37.078;2024-01-15T07:43:07;-3.23;80.79
70214;DHT22;60138;55.808;37.078;2024-01-15T07:45:33;-3.17;80.81
70214;DHT22;60138;55.808;37.078;2024-01-15T07:47:59;-3.10;80.83
70214;DHT22;60138;55.808;37.078;2024-01-15T07:50:25;-3.04;80.85
70214;DHT22;60138;55.808;37.078;2024-01-15T07:52:51;-2.96;80.81
70214;DHT22;60138;55.808;37.078;2024-01-15T07:55:17;-2.91;80.80
70214;DHT22;60138;55.808;37.078;2024-01-15T07:57:42;-2.86;80.80
70214;DHT22;60138;55.808;37.078;2024-01-15T08:00:08;-2.78;80.81
70214;DHT22;60138;55.808;37.078;2024-01-15T08:02:35;-2.69;80.85
70214;DHT22;60138;55.808;37.078;2024-01-15T08:05:01;-2.61;80.86
70214;DHT22;60138;55.808;37.078;2024-01-15T08:07:30;-2.52;80.87
70214;DHT22;60138;55.808;37.078;2024-01-15T08:09:56;-2.47;80.89
70214;DHT22;60138;55.808;37.078;2024-01-15T08:12:21;-2.39;80.91
70214;DHT22;60138;55.808;37.078;2024-01-15T08:14:48;-2.34;80.92
70214;DHT22;60138;55.808;37.078;2024-01-15T08:17:13;-2.28;80.94
70214;DHT22;60138;55.808;37.078;2024-01-15T08:19:39;-2.23;80.91
70214;DHT22;60138;55.808;37.078;2024-01-15T08:22:05;-2.17;80.94
70214;DHT22;60138;55.808;37.078;2024-01-15T08:24:31;-2.14;80.95
70214;DHT22;60138;55.808;37.078;2024-01-15T08:26:56;-2.06;80.96
70214;DHT22;60138;55.808;37.078;2024-01-15T08:29:22;-2.02;80.94
70214;DHT22;60138;55.808;37.078;2024-01-15T08:31:48;-1.97;80.86
70214;DHT22;60138;55.808;37.078;2024-01-15T08:34:14;-1.92;80.90
70214;DHT22;60138;55.808;37.078;2024-01-15T08:36:40;-1.88;80.99
70214;DHT22;60138;55.808;37.078;2024-01-15T08:39:06;-1.84;81.04
70214;DHT22;60138;55.808;37.078;2024-01-15T08:41:32;-1.82;81.04
70214;DHT22;60138;55.808;37.078;2024-01-15T08:43:58;-1.79;81.05
70214;DHT22;60138;55.808;37.078;2024-01-15T08:46:24;-1.76;81.10
70214;DHT22;60138;55.808;37.078;2024-01-15T08:48:50;-1.73;81.13
70214;DHT22;60138;55.808;37.078;2024-01-15T08:51:16;-1.69;81.17
70214;DHT22;60138;55.808;37.078;2024-01-15T08:53:41;-1.68;81.23
70214;DHT22;60138;55.808;37.078;2024-01-15T08:56:07;-1.65;81.27
70214;DHT22;60138;55.808;37.078;2024-01-15T08:58:33;-1.65;81.30
70214;DHT22;60138;55.808;37.078;2024-01-15T09:00:59;-1.67;81.33
70214;DHT22;60138;55.808;37.078;2024-01-15T09:03:25;-1.65;81.39
70214;DHT22;60138;55.808;37.078;2024-01-15T09:05:50;-1.67;81.41
70214;DHT22;60138;55.808;37.078;2024-01-15T09:08:16;-1.69;81.43
70214;DHT22;60138;55.808;37.078;2024-01-15T09:10:42;-1.69;81.47
70214;DHT22;60138;55.808;37.078;2024-01-15T09:13:08;-1.67;81.49
70214;DHT22;60138;55.808;37.078;2024-01-15T09:15:34;-1.64;81.51
70214;DHT22;60138;55.808;37.078;2024-01-15T09:18:00;-1.61;81.45
70214;DHT22;60138;55.808;37.078;2024-01-15T09:20:25;-1.58;81.49
70214;DHT22;60138;55.808;37.078;2024-01-15T09:22:51;-1.54;81.54
70214;DHT22;60138;55.808;37.078;2024-01-15T09:25:17;-1.53;81.54
70214;DHT22;60138;55.808;37.078;2024-01-15T09:27:43;-1.49;81.61
70214;DHT22;60138;55.808;37.078;2024-01-15T09:30:10;-1.43;81.67
70214;DHT22;60138;55.808;37.078;2024-01-15T09:32:35;-1.38;81.71
70214;DHT22;60138;55.808;37.078;2024-01-15T09:35:01;-1.32;81.69
70214;DHT22;60138;55.808;37.078;2024-01-15T09:37:29;-1.31;81.75
70214;DHT22;60138;55.808;37.078;2024-01-15T09:39:55;-1.30;81.81
70214;DHT22;60138;55.808;37.078;2024-01-15T09:42:23;-1.27;81.87
70214;DHT22;60138;55.808;37.078;2024-01-15T09:44:50;-1.23;81.87
70214;DHT22;60138;55.808;37.078;2024-01-15T09:47:17;-1.20;81.89
70214;DHT22;60138;55.808;37.078;2024-01-15T09:49:43;-1.19;81.86
70214;DHT22;60138;55.808;37.078;2024-01-15T09:52:10;-1.16;81.88
70214;DHT22;60138;55.808;37.078;2024-01-15T09:54:37;-1.17;81.93
70214;DHT22;60138;55.808;37.078;2024-01-15T09:57:03;-1.14;81.93
70214;DHT22;60138;55.808;37.078;2024-01-15T09:59:29;-1.14;81.97
70214;DHT22;60138;55.808;37.078;2024-01-15T10:01:57;-1.14;81.95
70214;DHT22;60138;55.808;37.078;2024-01-15T10:04:24;-1.14;82.02
70214;DHT22;60138;55.808;37.078;2024-01-15T10:06:51;-1.16;82.07
70214;DHT22;60138;55.808;37.078;2024-01-15T10:09:17;-1.14;82.10
70214;DHT22;60138;55.808;37.078;2024-01-15T10:11:44;-1.16;82.11
70214;DHT22;60138;55.808;37.078;2024-01-15T10:14:11;-1.16;82.15
70214;DHT22;60138;55.808;37.078;2024-01-15T10:16:40;-1.17;82.18
70214;DHT22;60138;55.808;37.078;2024-01-15T10:19:07;-1.19;82.24
70214;DHT22;60138;55.808;37.078;2024-01-15T10:21:34;-1.18;82.24
70214;DHT22;60138;55.808;37.078;2024-01-15T10:24:00;-1.20;82.28
70214;DHT22;60138;55.808;37.078;2024-01-15T10:26:27;-1.23;82.32
70214;DHT22;60138;55.808;37.078;2024-01-15T10:28:52;-1.24;82.41
70214;DHT22;60138;55.808;37.078;2024-01-15T10:31:18;-1.24;82.46
70214;DHT22;60138;55.808;37.078;2024-01-15T10:33:44;-1.21;82.49
70214;DHT22;60138;55.808;37.078;2024-01-15T10:36:10;-1.20;82.52
70214;DHT22;60138;55.808;37.078;2024-01-15T10:38:36;-1.19;82.56
70214;DHT22;60138;55.808;37.078;2024-01-15T10:41:02;-1.20;82.58
70214;DHT22;60138;55.808;37.078;2024-01-15T10:43:28;-1.20;82.62
70214;DHT22;60138;55.808;37.078;2024-01-15T10:45:54;-1.19;82.67
70214;DHT22;60138;55.808;37.078;2024-01-15T10:48:19;-1.17;82.69
70214;DHT22;60138;55.808;37.078;2024-01-15T10:50:46;-1.17;82.72
70214;DHT22;60138;55.808;37.078;2024-01-15T10:53:14;-1.18;82.75
70214;DHT22;60138;55.808;37.078;2024-01-15T10:55:41;-1.16;82.79
70214;DHT22;60138;55.808;37.078;2024-01-15T10:58:08;-1.14;82.83
70214;DHT22;60138;55.808;37.078;2024-01-15T11:00:38;-1.14;82.86
70214;DHT22;60138;55.808;37.078;2024-01-15T11:03:05;-1.11;82.90
70214;DHT22;60138;55.808;37.078;2024-01-15T11:05:41;-1.11;82.93
70214;DHT22;60138;55.808;37.078;2024-01-15T11:08:08;-1.10;82.96
70214;DHT22;60138;55.808;37.078;2024-01-15T11:13:14;-1.05;83.01
70214;DHT22;60138;55.808;37.078;2024-01-15T11:16:09;-1.04;83.05
70214;DHT22;60138;55.808;37.078;2024-01-15T11:18:41;-1.04;83.08
70214;DHT22;60138;55.808;37.078;2024-01-15T11:29:08;-1.03;83.21
70214;DHT22;60138;55.808;37.078;2024-01-15T11:34:07;-1.02;83.24
70214;DHT22;60138;55.808;37.078;2024-01-15T11:41:57;-1.02;83.29
70214;DHT22;60138;55.808;37.078;2024-01-15T11:44:24;-1.02;83.31
70214;DHT22;60138;55.808;37.078;2024-01-15T11:47:00;-1.02;83.35
70214;DHT22;60138;55.808;37.078;2024-01-15T11:50:01;-1.00;83.39
70214;DHT22;60138;55.808;37.078;2024-01-15T11:52:36;-1.00;83.41
70214;DHT22;60138;55.808;37.078;2024-01-15T11:55:34;-1.00;83.45
70214;DHT22;60138;55.808;37.078;2024-01-15T11:58:01;-1.00;83.45
70214;DHT22;60138;55.808;37.078;2024-01-15T12:00:28;-0.99;83.49
70214;DHT22;60138;55.808;37.078;2024-01-15T12:02:54;-0.99;83.52
70214;DHT22;60138;55.808;37.078;2024-01-15T12:05:20;-1.01;83.54
70214;DHT22;60138;55.808;37.078;2024-01-15T12:07:48;-0.98;83.58
70214;DHT22;60138;55.808;37.078;2024-01-15T12:10:19;-0.97;83.58
70214;DHT22;60138;55.808;37.078;2024-01-15T12:12:58;-0.98;83.58
70214;DHT22;60138;55.808;37.078;2024-01-15T12:15:25;-0.97;83.61
70214;DHT22;60138;55.808;37.078;2024-01-15T12:17:52;-0.97;83.65
70214;DHT22;60138;55.808;37.078;2024-01-15T12:20:18;-0.98;83.67
70214;DHT22;60138;55.808;37.078;2024-01-15T12:22:44;-0.98;83.68
70214;DHT22;60138;55.808;37.078;2024-01-15T12:25:10;-0.98;83.69
70214;DHT22;60138;55.808;37.078;2024-01-15T12:27:36;-0.99;83.72
70214;DHT22;60138;55.808;37.078;2024-01-15T12:30:02;-0.99;83.74
70214;DHT22;60138;55.808;37.078;2024-01-15T12:32:31;-1.01;83.78
70214;DHT22;60138;55.808;37.078;2024-01-15T12:34:57;-1.01;83.79
70214;DHT22;60138;55.808;37.078;2024-01-15T12:37:24;-1.01;83.81
70214;DHT22;60138;55.808;37.078;2024-01-15T12:39:49;-1.03;83.85
70214;DHT22;60138;55.808;37.078;2024-01-15T12:42:17;-1.04;83.88
70214;DHT22;60138;55.808;37.078;2024-01-15T12:44:45;-1.03;83.88
70214;DHT22;60138;55.808;37.078;2024-01-15T12:47:10;-1.04;83.90
70214;DHT22;60138;55.808;37.078;2024-01-15T12:49:37;-1.04;83.94
70214;DHT22;60138;55.808;37.078;2024-01-15T12:52:03;-1.03;83.94
70214;DHT22;60138;55.808;37.078;2024-01-15T12:54:29;-1.04;83.94
70214;DHT22;60138;55.808;37.078;2024-01-15T12:56:55;-1.02;83.97
70214;DHT22;60138;55.808;37.078;2024-01-15T12:59:21;-1.03;83.98
70214;DHT22;60138;55.808;37.078;2024-01-15T13:01:47;-1.03;83.99
70214;DHT22;60138;55.808;37.078;2024-01-15T13:04:23;-1.03;84.02
70214;DHT22;60138;55.808;37.078;2024-01-15T13:06:50;-1.02;84.03
70214;DHT22;60138;55.808;37.078;2024-01-15T13:09:16;-1.01;84.05
70214;DHT22;60138;55.808;37.078;2024-01-15T13:11:46;-1.02;84.07
70214;DHT22;60138;55.808;37.078;2024-01-15T13:14:12;-1.02;84.10
70214;DHT22;60138;55.808;37.078;2024-01-15T13:16:41;-1.02;84.12
70214;DHT22;60138;55.808;37.078;2024-01-15T13:19:10;-1.02;84.13
70214;DHT22;60138;55.808;37.078;2024-01-15T13:21:37;-1.04;84.17
70214;DHT22;60138;55.808;37.078;2024-01-15T13:24:03;-1.04;84.18
70214;DHT22;60138;55.808;37.078;2024-01-15T13:26:29;-1.03;84.22
70214;DHT22;60138;55.808;37.078;2024-01-15T13:28:55;-1.03;84.23
70214;DHT22;60138;55.808;37.078;2024-01-15T13:31:21;-1.02;84.23
70214;DHT22;60138;55.808;37.078;2024-01-15T13:33:47;-1.03;84.26
70214;DHT22;60138;55.808;37.078;2024-01-15T13:36:12;-1.02;84.29
70214;DHT22;60138;55.808;37.078;2024-01-15T13:38:38;-1.03;84.33
70214;DHT22;60138;55.808;37.078;2024-01-15T13:41:04;-1.03;84.35
70214;DHT22;60138;55.808;37.078;2024-01-15T13:43:33;-1.03;84.37
70214;DHT22;60138;55.808;37.078;2024-01-15T13:46:00;-1.02;84.37
70214;DHT22;60138;55.808;37.078;2024-01-15T13:48:26;-1.01;84.39
70214;DHT22;60138;55.808;37.078;2024-01-15T13:50:52;-1.01;84.39
70214;DHT22;60138;55.808;37.078;2024-01-15T13:53:18;-1.01;84.39
70214;DHT22;60138;55.808;37.078;2024-01-15T13:55:45;-1.00;84.40
70214;DHT22;60138;55.808;37.078;2024-01-15T13:58:11;-1.00;84.45
70214;DHT22;60138;55.808;37.078;2024-01-15T14:00:37;-1.01;84.42
70214;DHT22;60138;55.808;37.078;2024-01-15T14:03:02;-1.00;84.46
70214;DHT22;60138;55.808;37.078;2024-01-15T14:05:28;-1.00;84.46
70214;DHT22;60138;55.808;37.078;2024-01-15T14:07:54;-1.00;84.48
70214;DHT22;60138;55.808;37.078;2024-01-15T14:10:20;-1.00;84.51
70214;DHT22;60138;55.808;37.078;2024-01-15T14:12:46;-1.00;84.49
70214;DHT22;60138;55.808;37.078;2024-01-15T14:15:12;-1.00;84.52
70214;DHT22;60138;55.808;37.078;2024-01-15T14:17:38;-1.00;84.51
70214;DHT22;60138;55.808;37.078;2024-01-15T14:20:04;-1.02;84.51
70214;DHT22;60138;55.808;37.078;2024-01-15T14:22:31;-1.03;84.52
70214;DHT22;60138;55.808;37.078;2024-01-15T14:24:57;-1.03;84.54
70214;DHT22;60138;55.808;37.078;2024-01-15T14:27:22;-1.03;84.56
70214;DHT22;60138;55.808;37.078;2024-01-15T14:29:48;-1.04;84.57
70214;DHT22;60138;55.808;37.078;2024-01-15T14:32:14;-1.03;84.58
70214;DHT22;60138;55.808;37.078;2024-01-15T14:34:40;-1.04;84.59
70214;DHT22;60138;55.808;37.078;2024-01-15T14:37:05;-1.03;84.61
70214;DHT22;60138;55.808;37.078;2024-01-15T14:39:31;-1.02;84.62
70214;DHT22;60138;55.808;37.078;2024-01-15T14:41:57;-1.03;84.64
70214;DHT22;60138;55.808;37.078;2024-01-15T14:44:23;-1.04;84.67
70214;DHT22;60138;55.808;37.078;2024-01-15T14:46:49;-1.03;84.68
70214;DHT22;60138;55.808;37.078;2024-01-15T14:49:14;-1.05;84.66
70214;DHT22;60138;55.808;37.078;2024-01-15T14:51:40;-1.05;84.67
70214;DHT22;60138;55.808;37.078;2024-01-15T14:54:06;-1.05;84.68
70214;DHT22;60138;55.808;37.078;2024-01-15T14:56:32;-1.05;84.68
70214;DHT22;60138;55.808;37.078;2024-01-15T14:58:58;-1.03;84.70
70214;DHT22;60138;55.808;37.078;2024-01-15T15:01:24;-1.02;84.70
70214;DHT22;60138;55.808;37.078;2024-01-15T15:03:49;-1.01;84.72
70214;DHT22;60138;55.808;37.078;2024-01-15T15:06:15;-1.01;84.73
70214;DHT22;60138;55.808;37.078;2024-01-15T15:08:41;-1.00;84.71
70214;DHT22;60138;55.808;37.078;2024-01-15T15:11:07;-0.99;84.74
70214;DHT22;60138;55.808;37.078;2024-01-15T15:13:33;-1.00;84.76
70214;DHT22;60138;55.808;37.078;2024-01-15T15:15:59;-0.98;84.77
70214;DHT22;60138;55.808;37.078;2024-01-15T15:18:25;-0.99;84.79
70214;DHT22;60138;55.808;37.078;2024-01-15T15:20:50;-0.98;84.81
70214;DHT22;60138;55.808;37.078;2024-01-15T15:23:17;-0.98;84.81
70214;DHT22;60138;55.808;37.078;2024-01-15T15:25:43;-0.96;84.82
70214;DHT22;60138;55.808;37.078;2024-01-15T15:28:09;-0.95;84.84